Terminal Aerodrome Forecast
Issued by NWS

Home | Current Version | Previous Version | Text Only | Print | Product List | Glossary On
Versions: 1 2 3 4 5 6 7 8 9 10 11 12 13
000
FTUS43 KOAX 221100
TAFCDR
TAF
KCDR 221120Z 2212/2312 17018G25KT P6SM SCT150
     FM221500 18016G23KT P6SM BKN100
     FM222200 17008KT P6SM VCTS BKN100CB
     FM230400 18007KT P6SM VCSH SCT020 BKN050=

USA.gov is the U.S. government's official web portal to all federal, state and local government web resources and services.